sensor_id;sensor_type;location;lat;lon;timestamp;P1;durP1;ratioP1;P2;durP2;ratioP2
68225;SDS011;55045;49.410;11.030;2023-06-22T00:01:46;9.80;;;6.55;;
68225;SDS011;55045;49.410;11.030;2023-06-22T00:04:49;11.35;;;6.80;;
68225;SDS011;55045;49.410;11.030;2023-06-22T00:07:54;11.48;;;7.18;;
68225;SDS011;55045;49.410;11.030;2023-06-22T00:10:58;11.73;;;7.28;;
68225;SDS011;55045;49.410;11.030;2023-06-22T00:14:01;11.55;;;7.28;;
68225;SDS011;55045;49.410;11.030;2023-06-22T00:17:04;11.95;;;7.38;;
68225;SDS011;55045;49.410;11.030;2023-06-22T00:20:08;11.45;;;7.53;;
68225;SDS011;55045;49.410;11.030;2023-06-22T00:23:14;12.82;;;7.75;;
68225;SDS011;55045;49.410;11.030;2023-06-22T00:26:19;16.02;;;6.95;;
68225;SDS011;55045;49.410;11.030;2023-06-22T00:29:22;17.13;;;7.30;;
68225;SDS011;55045;49.410;11.030;2023-06-22T00:32:26;11.23;;;6.82;;
68225;SDS011;55045;49.410;11.030;2023-06-22T00:35:30;10.90;;;6.97;;
68225;SDS011;55045;49.410;11.030;2023-06-22T00:38:36;11.48;;;6.70;;
68225;SDS011;55045;49.410;11.030;2023-06-22T00:41:43;9.07;;;6.97;;
68225;SDS011;55045;49.410;11.030;2023-06-22T00:44:46;13.77;;;7.72;;
68225;SDS011;55045;49.410;11.030;2023-06-22T00:47:50;11.63;;;6.95;;
68225;SDS011;55045;49.410;11.030;2023-06-22T00:50:54;15.82;;;7.65;;
68225;SDS011;55045;49.410;11.030;2023-06-22T00:53:59;12.32;;;7.68;;
68225;SDS011;55045;49.410;11.030;2023-06-22T00:57:03;11.20;;;7.32;;
68225;SDS011;55045;49.410;11.030;2023-06-22T01:00:08;10.57;;;7.88;;
68225;SDS011;55045;49.410;11.030;2023-06-22T01:03:13;12.32;;;8.45;;
68225;SDS011;55045;49.410;11.030;2023-06-22T01:06:21;11.93;;;7.95;;
68225;SDS011;55045;49.410;11.030;2023-06-22T01:09:31;12.45;;;7.68;;
68225;SDS011;55045;49.410;11.030;2023-06-22T01:12:42;12.57;;;8.23;;
68225;SDS011;55045;49.410;11.030;2023-06-22T01:15:51;13.30;;;8.05;;
68225;SDS011;55045;49.410;11.030;2023-06-22T01:19:00;11.95;;;7.85;;
68225;SDS011;55045;49.410;11.030;2023-06-22T01:22:08;11.05;;;7.85;;
68225;SDS011;55045;49.410;11.030;2023-06-22T01:25:19;13.85;;;8.23;;
68225;SDS011;55045;49.410;11.030;2023-06-22T01:28:34;10.75;;;7.72;;
68225;SDS011;55045;49.410;11.030;2023-06-22T01:31:44;12.13;;;7.57;;
68225;SDS011;55045;49.410;11.030;2023-06-22T01:34:49;12.85;;;8.13;;
68225;SDS011;55045;49.410;11.030;2023-06-22T01:37:53;15.85;;;7.93;;
68225;SDS011;55045;49.410;11.030;2023-06-22T01:40:57;13.40;;;8.43;;
68225;SDS011;55045;49.410;11.030;2023-06-22T01:44:03;13.25;;;7.93;;
68225;SDS011;55045;49.410;11.030;2023-06-22T01:47:10;15.70;;;8.82;;
68225;SDS011;55045;49.410;11.030;2023-06-22T01:53:21;15.15;;;7.57;;
68225;SDS011;55045;49.410;11.030;2023-06-22T01:56:26;12.15;;;7.10;;
68225;SDS011;55045;49.410;11.030;2023-06-22T01:59:32;13.63;;;6.65;;
68225;SDS011;55045;49.410;11.030;2023-06-22T02:02:39;12.00;;;7.60;;
68225;SDS011;55045;49.410;11.030;2023-06-22T02:05:48;14.45;;;8.18;;
68225;SDS011;55045;49.410;11.030;2023-06-22T02:08:53;9.77;;;6.72;;
68225;SDS011;55045;49.410;11.030;2023-06-22T02:15:07;10.98;;;6.97;;
68225;SDS011;55045;49.410;11.030;2023-06-22T02:18:11;14.40;;;8.05;;
68225;SDS011;55045;49.410;11.030;2023-06-22T02:21:15;9.50;;;6.75;;
68225;SDS011;55045;49.410;11.030;2023-06-22T02:24:19;10.43;;;7.00;;
68225;SDS011;55045;49.410;11.030;2023-06-22T02:27:25;12.02;;;7.60;;
68225;SDS011;55045;49.410;11.030;2023-06-22T02:30:29;10.88;;;6.57;;
68225;SDS011;55045;49.410;11.030;2023-06-22T02:33:34;12.50;;;7.70;;
68225;SDS011;55045;49.410;11.030;2023-06-22T02:36:37;10.60;;;7.57;;
68225;SDS011;55045;49.410;11.030;2023-06-22T02:39:41;11.55;;;7.35;;
68225;SDS011;55045;49.410;11.030;2023-06-22T02:42:44;15.13;;;8.80;;
68225;SDS011;55045;49.410;11.030;2023-06-22T02:45:48;13.95;;;8.98;;
68225;SDS011;55045;49.410;11.030;2023-06-22T02:48:52;12.75;;;7.88;;
68225;SDS011;55045;49.410;11.030;2023-06-22T02:51:56;13.73;;;8.88;;
68225;SDS011;55045;49.410;11.030;2023-06-22T02:55:00;13.50;;;8.95;;
68225;SDS011;55045;49.410;11.030;2023-06-22T02:58:04;13.43;;;8.38;;
68225;SDS011;55045;49.410;11.030;2023-06-22T03:01:12;13.43;;;8.65;;
68225;SDS011;55045;49.410;11.030;2023-06-22T03:04:19;13.40;;;8.43;;
68225;SDS011;55045;49.410;11.030;2023-06-22T03:07:22;17.33;;;8.98;;
68225;SDS011;55045;49.410;11.030;2023-06-22T03:10:29;15.20;;;9.23;;
68225;SDS011;55045;49.410;11.030;2023-06-22T03:13:32;14.35;;;9.30;;
68225;SDS011;55045;49.410;11.030;2023-06-22T03:16:37;13.13;;;9.00;;
68225;SDS011;55045;49.410;11.030;2023-06-22T03:19:42;11.60;;;8.25;;
68225;SDS011;55045;49.410;11.030;2023-06-22T03:22:46;14.20;;;8.23;;
68225;SDS011;55045;49.410;11.030;2023-06-22T03:25:50;14.75;;;8.80;;
68225;SDS011;55045;49.410;11.030;2023-06-22T03:28:53;12.88;;;7.88;;
68225;SDS011;55045;49.410;11.030;2023-06-22T03:34:12;12.88;;;7.97;;
68225;SDS011;55045;49.410;11.030;2023-06-22T03:37:15;13.82;;;8.15;;
68225;SDS011;55045;49.410;11.030;2023-06-22T03:40:19;15.32;;;8.80;;
68225;SDS011;55045;49.410;11.030;2023-06-22T03:43:23;12.13;;;7.95;;
68225;SDS011;55045;49.410;11.030;2023-06-22T03:46:26;12.43;;;7.20;;
68225;SDS011;55045;49.410;11.030;2023-06-22T03:49:31;13.10;;;7.53;;
68225;SDS011;55045;49.410;11.030;2023-06-22T03:52:34;12.38;;;7.90;;
68225;SDS011;55045;49.410;11.030;2023-06-22T03:55:40;17.10;;;8.50;;
68225;SDS011;55045;49.410;11.030;2023-06-22T03:58:50;10.63;;;7.80;;
68225;SDS011;55045;49.410;11.030;2023-06-22T04:01:53;12.27;;;7.32;;
68225;SDS011;55045;49.410;11.030;2023-06-22T04:04:58;10.35;;;7.25;;
68225;SDS011;55045;49.410;11.030;2023-06-22T04:08:05;10.57;;;7.60;;
68225;SDS011;55045;49.410;11.030;2023-06-22T04:11:09;10.65;;;7.30;;
68225;SDS011;55045;49.410;11.030;2023-06-22T04:14:12;15.65;;;8.23;;
68225;SDS011;55045;49.410;11.030;2023-06-22T04:17:15;12.85;;;7.80;;
68225;SDS011;55045;49.410;11.030;2023-06-22T04:20:21;9.73;;;6.55;;
68225;SDS011;55045;49.410;11.030;2023-06-22T04:23:24;12.82;;;8.07;;
68225;SDS011;55045;49.410;11.030;2023-06-22T04:26:27;10.88;;;7.80;;
68225;SDS011;55045;49.410;11.030;2023-06-22T04:29:31;12.32;;;7.97;;
68225;SDS011;55045;49.410;11.030;2023-06-22T04:32:34;12.93;;;7.00;;
68225;SDS011;55045;49.410;11.030;2023-06-22T04:35:40;12.55;;;7.28;;
68225;SDS011;55045;49.410;11.030;2023-06-22T04:38:44;10.73;;;8.10;;
68225;SDS011;55045;49.410;11.030;2023-06-22T04:41:47;11.60;;;7.00;;
68225;SDS011;55045;49.410;11.030;2023-06-22T04:44:50;10.98;;;7.70;;
68225;SDS011;55045;49.410;11.030;2023-06-22T04:47:54;12.73;;;7.20;;
68225;SDS011;55045;49.410;11.030;2023-06-22T04:50:58;10.75;;;6.43;;
68225;SDS011;55045;49.410;11.030;2023-06-22T04:57:08;10.77;;;6.03;;
68225;SDS011;55045;49.410;11.030;2023-06-22T05:00:12;11.13;;;5.88;;
68225;SDS011;55045;49.410;11.030;2023-06-22T05:03:18;10.35;;;6.10;;
68225;SDS011;55045;49.410;11.030;2023-06-22T05:06:23;9.00;;;6.50;;
68225;SDS011;55045;49.410;11.030;2023-06-22T05:09:27;8.80;;;6.35;;
68225;SDS011;55045;49.410;11.030;2023-06-22T05:12:31;11.25;;;5.90;;
68225;SDS011;55045;49.410;11.030;2023-06-22T05:15:34;4.25;;;3.53;;
68225;SDS011;55045;49.410;11.030;2023-06-22T05:18:41;4.25;;;2.83;;
68225;SDS011;55045;49.410;11.030;2023-06-22T05:21:46;6.65;;;3.20;;
68225;SDS011;55045;49.410;11.030;2023-06-22T05:24:49;5.07;;;3.85;;
68225;SDS011;55045;49.410;11.030;2023-06-22T05:27:53;8.07;;;3.72;;
68225;SDS011;55045;49.410;11.030;2023-06-22T05:30:56;5.40;;;3.92;;
68225;SDS011;55045;49.410;11.030;2023-06-22T05:33:59;4.32;;;2.58;;
68225;SDS011;55045;49.410;11.030;2023-06-22T05:37:04;9.73;;;4.72;;
68225;SDS011;55045;49.410;11.030;2023-06-22T05:40:10;4.60;;;3.03;;
68225;SDS011;55045;49.410;11.030;2023-06-22T05:43:14;7.32;;;4.05;;
68225;SDS011;55045;49.410;11.030;2023-06-22T05:46:18;12.18;;;3.22;;
68225;SDS011;55045;49.410;11.030;2023-06-22T05:49:22;4.07;;;3.15;;
68225;SDS011;55045;49.410;11.030;2023-06-22T05:52:27;7.00;;;4.00;;
68225;SDS011;55045;49.410;11.030;2023-06-22T05:55:31;5.05;;;3.58;;
68225;SDS011;55045;49.410;11.030;2023-06-22T05:58:36;4.22;;;2.22;;
68225;SDS011;55045;49.410;11.030;2023-06-22T06:01:39;14.05;;;3.47;;
68225;SDS011;55045;49.410;11.030;2023-06-22T06:04:43;2.88;;;2.42;;
68225;SDS011;55045;49.410;11.030;2023-06-22T06:07:47;6.13;;;3.25;;
68225;SDS011;55045;49.410;11.030;2023-06-22T06:10:50;9.52;;;4.78;;
68225;SDS011;55045;49.410;11.030;2023-06-22T06:13:55;2.45;;;2.13;;
68225;SDS011;55045;49.410;11.030;2023-06-22T06:16:58;6.10;;;3.45;;
68225;SDS011;55045;49.410;11.030;2023-06-22T06:20:02;6.25;;;3.55;;
68225;SDS011;55045;49.410;11.030;2023-06-22T06:23:10;8.18;;;5.47;;
68225;SDS011;55045;49.410;11.030;2023-06-22T06:26:13;5.32;;;2.97;;
68225;SDS011;55045;49.410;11.030;2023-06-22T06:29:18;1.95;;;1.67;;
68225;SDS011;55045;49.410;11.030;2023-06-22T06:32:21;4.13;;;3.28;;
68225;SDS011;55045;49.410;11.030;2023-06-22T06:35:25;5.15;;;3.47;;
68225;SDS011;55045;49.410;11.030;2023-06-22T06:38:29;6.15;;;3.72;;
68225;SDS011;55045;49.410;11.030;2023-06-22T06:41:33;3.80;;;3.38;;
68225;SDS011;55045;49.410;11.030;2023-06-22T06:44:36;6.13;;;3.20;;
68225;SDS011;55045;49.410;11.030;2023-06-22T06:47:47;5.35;;;3.78;;
68225;SDS011;55045;49.410;11.030;2023-06-22T06:50:50;3.58;;;2.80;;
68225;SDS011;55045;49.410;11.030;2023-06-22T06:53:54;8.88;;;3.75;;
68225;SDS011;55045;49.410;11.030;2023-06-22T06:56:58;3.80;;;2.53;;
68225;SDS011;55045;49.410;11.030;2023-06-22T07:00:01;3.25;;;2.67;;
68225;SDS011;55045;49.410;11.030;2023-06-22T07:03:11;5.90;;;3.50;;
68225;SDS011;55045;49.410;11.030;2023-06-22T07:06:14;3.55;;;2.35;;
68225;SDS011;55045;49.410;11.030;2023-06-22T07:09:19;9.20;;;2.53;;
68225;SDS011;55045;49.410;11.030;2023-06-22T07:12:23;3.15;;;2.10;;
68225;SDS011;55045;49.410;11.030;2023-06-22T07:15:26;3.20;;;2.22;;
68225;SDS011;55045;49.410;11.030;2023-06-22T07:18:29;4.22;;;2.83;;
68225;SDS011;55045;49.410;11.030;2023-06-22T07:21:32;2.38;;;2.17;;
68225;SDS011;55045;49.410;11.030;2023-06-22T07:24:37;5.20;;;3.15;;
68225;SDS011;55045;49.410;11.030;2023-06-22T07:27:46;3.47;;;2.80;;
68225;SDS011;55045;49.410;11.030;2023-06-22T07:30:59;5.72;;;3.00;;
68225;SDS011;55045;49.410;11.030;2023-06-22T07:34:02;5.30;;;3.65;;
68225;SDS011;55045;49.410;11.030;2023-06-22T07:37:09;5.20;;;3.25;;
68225;SDS011;55045;49.410;11.030;2023-06-22T07:40:14;4.45;;;2.60;;
68225;SDS011;55045;49.410;11.030;2023-06-22T07:43:17;2.67;;;2.30;;
68225;SDS011;55045;49.410;11.030;2023-06-22T07:46:22;5.57;;;3.40;;
68225;SDS011;55045;49.410;11.030;2023-06-22T07:49:27;3.65;;;2.75;;
68225;SDS011;55045;49.410;11.030;2023-06-22T07:52:31;14.82;;;5.43;;
68225;SDS011;55045;49.410;11.030;2023-06-22T07:55:36;14.60;;;2.25;;
68225;SDS011;55045;49.410;11.030;2023-06-22T07:58:39;5.40;;;2.40;;
68225;SDS011;55045;49.410;11.030;2023-06-22T08:01:43;2.13;;;1.38;;
68225;SDS011;55045;49.410;11.030;2023-06-22T08:04:46;6.68;;;2.85;;
68225;SDS011;55045;49.410;11.030;2023-06-22T08:07:50;6.57;;;3.58;;
68225;SDS011;55045;49.410;11.030;2023-06-22T08:10:55;2.10;;;1.83;;
68225;SDS011;55045;49.410;11.030;2023-06-22T08:13:58;29.25;;;5.35;;
68225;SDS011;55045;49.410;11.030;2023-06-22T08:17:01;3.33;;;2.83;;
68225;SDS011;55045;49.410;11.030;2023-06-22T08:20:05;7.07;;;1.73;;
68225;SDS011;55045;49.410;11.030;2023-06-22T08:26:16;4.97;;;2.45;;
68225;SDS011;55045;49.410;11.030;2023-06-22T08:29:19;7.50;;;2.83;;
68225;SDS011;55045;49.410;11.030;2023-06-22T08:32:23;21.25;;;8.68;;
68225;SDS011;55045;49.410;11.030;2023-06-22T08:35:28;20.48;;;11.63;;
68225;SDS011;55045;49.410;11.030;2023-06-22T08:38:32;3.00;;;2.75;;
68225;SDS011;55045;49.410;11.030;2023-06-22T08:41:37;4.13;;;1.83;;
68225;SDS011;55045;49.410;11.030;2023-06-22T08:44:40;3.03;;;1.65;;
68225;SDS011;55045;49.410;11.030;2023-06-22T08:47:46;8.18;;;2.55;;
68225;SDS011;55045;49.410;11.030;2023-06-22T08:50:49;3.42;;;2.13;;
68225;SDS011;55045;49.410;11.030;2023-06-22T08:53:53;4.97;;;2.33;;
68225;SDS011;55045;49.410;11.030;2023-06-22T08:56:57;2.22;;;1.83;;
68225;SDS011;55045;49.410;11.030;2023-06-22T09:00:01;5.90;;;3.80;;
68225;SDS011;55045;49.410;11.030;2023-06-22T09:03:06;5.68;;;2.33;;
68225;SDS011;55045;49.410;11.030;2023-06-22T09:06:10;1.92;;;1.67;;
68225;SDS011;55045;49.410;11.030;2023-06-22T09:09:16;5.68;;;2.33;;
68225;SDS011;55045;49.410;11.030;2023-06-22T09:12:20;3.58;;;2.25;;
68225;SDS011;55045;49.410;11.030;2023-06-22T09:15:27;7.50;;;3.58;;
68225;SDS011;55045;49.410;11.030;2023-06-22T09:18:31;3.50;;;2.28;;
68225;SDS011;55045;49.410;11.030;2023-06-22T09:21:35;3.65;;;2.10;;
68225;SDS011;55045;49.410;11.030;2023-06-22T09:24:39;8.75;;;3.42;;
68225;SDS011;55045;49.410;11.030;2023-06-22T09:27:43;7.13;;;2.63;;
68225;SDS011;55045;49.410;11.030;2023-06-22T09:34:12;3.83;;;2.53;;
68225;SDS011;55045;49.410;11.030;2023-06-22T09:37:15;3.85;;;2.08;;
68225;SDS011;55045;49.410;11.030;2023-06-22T09:40:19;4.68;;;2.78;;
68225;SDS011;55045;49.410;11.030;2023-06-22T09:43:22;2.25;;;1.35;;
68225;SDS011;55045;49.410;11.030;2023-06-22T09:46:26;2.70;;;1.60;;
68225;SDS011;55045;49.410;11.030;2023-06-22T09:49:31;3.65;;;2.50;;
68225;SDS011;55045;49.410;11.030;2023-06-22T09:52:49;2.30;;;1.80;;
68225;SDS011;55045;49.410;11.030;2023-06-22T09:55:56;7.63;;;2.92;;
68225;SDS011;55045;49.410;11.030;2023-06-22T09:59:00;10.50;;;2.38;;
68225;SDS011;55045;49.410;11.030;2023-06-22T10:02:18;5.45;;;1.75;;
68225;SDS011;55045;49.410;11.030;2023-06-22T10:05:23;6.45;;;2.17;;
68225;SDS011;55045;49.410;11.030;2023-06-22T10:08:28;6.50;;;2.80;;
68225;SDS011;55045;49.410;11.030;2023-06-22T10:11:31;4.35;;;2.78;;
68225;SDS011;55045;49.410;11.030;2023-06-22T10:14:37;12.00;;;3.00;;
68225;SDS011;55045;49.410;11.030;2023-06-22T10:17:47;4.70;;;1.83;;
68225;SDS011;55045;49.410;11.030;2023-06-22T10:20:51;5.72;;;2.78;;
68225;SDS011;55045;49.410;11.030;2023-06-22T10:23:55;5.90;;;3.08;;
68225;SDS011;55045;49.410;11.030;2023-06-22T10:26:58;2.38;;;1.73;;
68225;SDS011;55045;49.410;11.030;2023-06-22T10:30:02;6.20;;;2.60;;
68225;SDS011;55045;49.410;11.030;2023-06-22T10:33:07;1.98;;;1.73;;
68225;SDS011;55045;49.410;11.030;2023-06-22T10:36:12;4.07;;;2.17;;
68225;SDS011;55045;49.410;11.030;2023-06-22T10:39:15;4.60;;;3.33;;
68225;SDS011;55045;49.410;11.030;2023-06-22T10:42:18;6.22;;;2.83;;
68225;SDS011;55045;49.410;11.030;2023-06-22T10:45:21;6.88;;;2.90;;
68225;SDS011;55045;49.410;11.030;2023-06-22T10:48:25;4.32;;;2.83;;
68225;SDS011;55045;49.410;11.030;2023-06-22T10:51:29;2.22;;;1.70;;
68225;SDS011;55045;49.410;11.030;2023-06-22T10:54:34;1.48;;;1.38;;
68225;SDS011;55045;49.410;11.030;2023-06-22T10:57:38;2.15;;;1.95;;
68225;SDS011;55045;49.410;11.030;2023-06-22T11:03:48;9.60;;;2.38;;
68225;SDS011;55045;49.410;11.030;2023-06-22T11:06:53;5.15;;;2.65;;
68225;SDS011;55045;49.410;11.030;2023-06-22T11:09:58;17.50;;;3.63;;
68225;SDS011;55045;49.410;11.030;2023-06-22T11:13:01;10.60;;;2.53;;
68225;SDS011;55045;49.410;11.030;2023-06-22T11:16:06;6.10;;;1.77;;
68225;SDS011;55045;49.410;11.030;2023-06-22T11:19:09;2.85;;;1.75;;
68225;SDS011;55045;49.410;11.030;2023-06-22T11:22:14;13.18;;;2.08;;
68225;SDS011;55045;49.410;11.030;2023-06-22T11:25:17;3.72;;;2.17;;
68225;SDS011;55045;49.410;11.030;2023-06-22T11:28:21;8.52;;;3.22;;
68225;SDS011;55045;49.410;11.030;2023-06-22T11:31:24;3.40;;;2.33;;
68225;SDS011;55045;49.410;11.030;2023-06-22T11:34:28;4.78;;;2.53;;
68225;SDS011;55045;49.410;11.030;2023-06-22T11:37:32;5.32;;;1.98;;
68225;SDS011;55045;49.410;11.030;2023-06-22T11:40:35;5.93;;;2.75;;
68225;SDS011;55045;49.410;11.030;2023-06-22T11:43:39;6.22;;;2.60;;
68225;SDS011;55045;49.410;11.030;2023-06-22T11:46:43;9.82;;;5.50;;
68225;SDS011;55045;49.410;11.030;2023-06-22T11:49:46;10.68;;;5.60;;
68225;SDS011;55045;49.410;11.030;2023-06-22T11:52:51;11.55;;;4.53;;
68225;SDS011;55045;49.410;11.030;2023-06-22T11:55:54;11.20;;;4.82;;
68225;SDS011;55045;49.410;11.030;2023-06-22T11:58:58;8.48;;;4.57;;
68225;SDS011;55045;49.410;11.030;2023-06-22T12:02:02;9.05;;;3.85;;
68225;SDS011;55045;49.410;11.030;2023-06-22T12:05:07;10.02;;;4.70;;
68225;SDS011;55045;49.410;11.030;2023-06-22T12:08:12;7.03;;;3.60;;
68225;SDS011;55045;49.410;11.030;2023-06-22T12:11:16;10.07;;;4.45;;
68225;SDS011;55045;49.410;11.030;2023-06-22T12:14:19;9.32;;;4.10;;
68225;SDS011;55045;49.410;11.030;2023-06-22T12:17:22;13.95;;;5.20;;
68225;SDS011;55045;49.410;11.030;2023-06-22T12:20:25;4.55;;;3.63;;
68225;SDS011;55045;49.410;11.030;2023-06-22T12:23:31;9.98;;;4.70;;
68225;SDS011;55045;49.410;11.030;2023-06-22T12:26:34;8.85;;;4.00;;
68225;SDS011;55045;49.410;11.030;2023-06-22T12:29:37;11.57;;;4.35;;
68225;SDS011;55045;49.410;11.030;2023-06-22T12:32:44;9.50;;;4.38;;
68225;SDS011;55045;49.410;11.030;2023-06-22T12:35:48;7.40;;;4.05;;
68225;SDS011;55045;49.410;11.030;2023-06-22T12:38:53;12.48;;;4.80;;
68225;SDS011;55045;49.410;11.030;2023-06-22T12:41:57;8.98;;;4.70;;
68225;SDS011;55045;49.410;11.030;2023-06-22T12:45:01;9.25;;;3.80;;
68225;SDS011;55045;49.410;11.030;2023-06-22T12:48:05;6.70;;;4.13;;
68225;SDS011;55045;49.410;11.030;2023-06-22T12:51:10;9.75;;;4.22;;
68225;SDS011;55045;49.410;11.030;2023-06-22T12:54:14;10.13;;;4.20;;
68225;SDS011;55045;49.410;11.030;2023-06-22T12:57:18;9.70;;;4.82;;
68225;SDS011;55045;49.410;11.030;2023-06-22T13:00:21;7.97;;;4.00;;
68225;SDS011;55045;49.410;11.030;2023-06-22T13:03:25;10.60;;;4.00;;
68225;SDS011;55045;49.410;11.030;2023-06-22T13:06:29;9.20;;;4.72;;
68225;SDS011;55045;49.410;11.030;2023-06-22T13:09:35;10.85;;;3.55;;
68225;SDS011;55045;49.410;11.030;2023-06-22T13:12:39;8.40;;;3.25;;
68225;SDS011;55045;49.410;11.030;2023-06-22T13:15:42;15.15;;;3.70;;
68225;SDS011;55045;49.410;11.030;2023-06-22T13:18:46;8.93;;;3.97;;
68225;SDS011;55045;49.410;11.030;2023-06-22T13:21:49;9.48;;;3.90;;
68225;SDS011;55045;49.410;11.030;2023-06-22T13:24:54;9.30;;;3.67;;
68225;SDS011;55045;49.410;11.030;2023-06-22T13:27:57;8.63;;;3.55;;
68225;SDS011;55045;49.410;11.030;2023-06-22T13:31:01;10.43;;;3.35;;
68225;SDS011;55045;49.410;11.030;2023-06-22T13:34:05;15.73;;;3.42;;
68225;SDS011;55045;49.410;11.030;2023-06-22T13:37:08;9.48;;;3.55;;
68225;SDS011;55045;49.410;11.030;2023-06-22T13:40:13;7.47;;;3.33;;
68225;SDS011;55045;49.410;11.030;2023-06-22T13:43:16;9.55;;;3.40;;
68225;SDS011;55045;49.410;11.030;2023-06-22T13:46:19;11.18;;;3.90;;
68225;SDS011;55045;49.410;11.030;2023-06-22T13:49:23;6.43;;;3.22;;
68225;SDS011;55045;49.410;11.030;2023-06-22T13:52:27;6.18;;;3.28;;
68225;SDS011;55045;49.410;11.030;2023-06-22T13:55:31;9.55;;;3.70;;
68225;SDS011;55045;49.410;11.030;2023-06-22T13:58:35;11.93;;;3.50;;
68225;SDS011;55045;49.410;11.030;2023-06-22T14:01:38;9.38;;;3.63;;
68225;SDS011;55045;49.410;11.030;2023-06-22T14:04:41;7.95;;;3.72;;
68225;SDS011;55045;49.410;11.030;2023-06-22T14:07:45;9.95;;;3.70;;
68225;SDS011;55045;49.410;11.030;2023-06-22T14:10:50;8.38;;;3.97;;
68225;SDS011;55045;49.410;11.030;2023-06-22T14:16:58;12.07;;;4.32;;
68225;SDS011;55045;49.410;11.030;2023-06-22T14:20:01;8.57;;;3.67;;
68225;SDS011;55045;49.410;11.030;2023-06-22T14:23:05;5.97;;;3.08;;
68225;SDS011;55045;49.410;11.030;2023-06-22T14:26:10;8.13;;;4.03;;
68225;SDS011;55045;49.410;11.030;2023-06-22T14:29:13;13.43;;;4.25;;
68225;SDS011;55045;49.410;11.030;2023-06-22T14:32:17;7.03;;;3.42;;
68225;SDS011;55045;49.410;11.030;2023-06-22T14:35:20;11.00;;;3.60;;
68225;SDS011;55045;49.410;11.030;2023-06-22T14:38:24;9.23;;;3.92;;
68225;SDS011;55045;49.410;11.030;2023-06-22T14:41:28;8.10;;;3.20;;
68225;SDS011;55045;49.410;11.030;2023-06-22T14:44:32;13.32;;;3.55;;
68225;SDS011;55045;49.410;11.030;2023-06-22T14:47:35;10.75;;;4.07;;
68225;SDS011;55045;49.410;11.030;2023-06-22T14:50:38;8.05;;;3.13;;
68225;SDS011;55045;49.410;11.030;2023-06-22T14:53:42;13.02;;;3.40;;
68225;SDS011;55045;49.410;11.030;2023-06-22T14:56:50;8.55;;;3.40;;
68225;SDS011;55045;49.410;11.030;2023-06-22T14:59:53;14.13;;;3.55;;
68225;SDS011;55045;49.410;11.030;2023-06-22T15:02:57;9.43;;;3.30;;
68225;SDS011;55045;49.410;11.030;2023-06-22T15:06:01;8.25;;;3.40;;
68225;SDS011;55045;49.410;11.030;2023-06-22T15:09:05;13.50;;;3.55;;
68225;SDS011;55045;49.410;11.030;2023-06-22T15:12:09;7.68;;;3.50;;
68225;SDS011;55045;49.410;11.030;2023-06-22T15:15:13;10.35;;;4.05;;
68225;SDS011;55045;49.410;11.030;2023-06-22T15:18:16;8.52;;;3.38;;
68225;SDS011;55045;49.410;11.030;2023-06-22T15:21:20;10.27;;;3.78;;
68225;SDS011;55045;49.410;11.030;2023-06-22T15:24:23;14.88;;;3.83;;
68225;SDS011;55045;49.410;11.030;2023-06-22T15:27:28;13.38;;;3.92;;
68225;SDS011;55045;49.410;11.030;2023-06-22T15:34:12;9.43;;;3.42;;
68225;SDS011;55045;49.410;11.030;2023-06-22T15:37:16;7.15;;;4.03;;
68225;SDS011;55045;49.410;11.030;2023-06-22T15:40:20;12.27;;;3.88;;
68225;SDS011;55045;49.410;11.030;2023-06-22T15:43:23;10.82;;;3.35;;
68225;SDS011;55045;49.410;11.030;2023-06-22T15:46:26;12.65;;;3.60;;
68225;SDS011;55045;49.410;11.030;2023-06-22T15:49:31;7.88;;;3.20;;
68225;SDS011;55045;49.410;11.030;2023-06-22T15:52:34;7.75;;;4.25;;
68225;SDS011;55045;49.410;11.030;2023-06-22T15:55:37;13.30;;;4.00;;
68225;SDS011;55045;49.410;11.030;2023-06-22T15:58:40;11.52;;;3.58;;
68225;SDS011;55045;49.410;11.030;2023-06-22T16:01:43;11.18;;;3.80;;
68225;SDS011;55045;49.410;11.030;2023-06-22T16:04:48;10.27;;;3.47;;
68225;SDS011;55045;49.410;11.030;2023-06-22T16:07:54;15.18;;;3.47;;
68225;SDS011;55045;49.410;11.030;2023-06-22T16:10:58;13.15;;;4.03;;
68225;SDS011;55045;49.410;11.030;2023-06-22T16:14:02;6.72;;;3.65;;
68225;SDS011;55045;49.410;11.030;2023-06-22T16:17:05;10.95;;;4.57;;
68225;SDS011;55045;49.410;11.030;2023-06-22T16:20:11;8.45;;;3.97;;
68225;SDS011;55045;49.410;11.030;2023-06-22T16:23:18;7.90;;;4.05;;
68225;SDS011;55045;49.410;11.030;2023-06-22T16:26:21;11.75;;;3.78;;
68225;SDS011;55045;49.410;11.030;2023-06-22T16:29:25;11.95;;;3.53;;
68225;SDS011;55045;49.410;11.030;2023-06-22T16:32:28;11.85;;;3.67;;
68225;SDS011;55045;49.410;11.030;2023-06-22T16:35:33;8.10;;;3.47;;
68225;SDS011;55045;49.410;11.030;2023-06-22T16:38:38;8.93;;;3.42;;
68225;SDS011;55045;49.410;11.030;2023-06-22T16:41:41;8.18;;;3.85;;
68225;SDS011;55045;49.410;11.030;2023-06-22T16:44:46;10.90;;;3.83;;
68225;SDS011;55045;49.410;11.030;2023-06-22T16:47:50;9.38;;;3.80;;
68225;SDS011;55045;49.410;11.030;2023-06-22T16:50:55;12.75;;;4.30;;
68225;SDS011;55045;49.410;11.030;2023-06-22T16:53:59;8.25;;;3.75;;
68225;SDS011;55045;49.410;11.030;2023-06-22T16:57:04;9.45;;;3.80;;
68225;SDS011;55045;49.410;11.030;2023-06-22T17:00:08;12.85;;;4.57;;
68225;SDS011;55045;49.410;11.030;2023-06-22T17:03:15;8.88;;;3.58;;
68225;SDS011;55045;49.410;11.030;2023-06-22T17:06:26;8.45;;;4.05;;
68225;SDS011;55045;49.410;11.030;2023-06-22T17:09:29;14.73;;;3.63;;
68225;SDS011;55045;49.410;11.030;2023-06-22T17:12:34;10.35;;;4.03;;
68225;SDS011;55045;49.410;11.030;2023-06-22T17:15:39;14.27;;;4.72;;
68225;SDS011;55045;49.410;11.030;2023-06-22T17:18:45;10.00;;;3.90;;
68225;SDS011;55045;49.410;11.030;2023-06-22T17:21:52;7.95;;;3.55;;
68225;SDS011;55045;49.410;11.030;2023-06-22T17:24:56;13.82;;;4.10;;
68225;SDS011;55045;49.410;11.030;2023-06-22T17:28:00;11.48;;;4.00;;
68225;SDS011;55045;49.410;11.030;2023-06-22T17:31:10;8.10;;;3.95;;
68225;SDS011;55045;49.410;11.030;2023-06-22T17:34:14;7.53;;;3.95;;
68225;SDS011;55045;49.410;11.030;2023-06-22T17:37:19;11.23;;;3.97;;
68225;SDS011;55045;49.410;11.030;2023-06-22T17:40:23;10.30;;;5.20;;
68225;SDS011;55045;49.410;11.030;2023-06-22T17:43:28;9.70;;;4.13;;
68225;SDS011;55045;49.410;11.030;2023-06-22T17:46:33;17.33;;;4.35;;
68225;SDS011;55045;49.410;11.030;2023-06-22T17:49:37;9.02;;;3.80;;
68225;SDS011;55045;49.410;11.030;2023-06-22T17:52:42;9.80;;;4.10;;
68225;SDS011;55045;49.410;11.030;2023-06-22T17:55:52;14.05;;;4.00;;
68225;SDS011;55045;49.410;11.030;2023-06-22T17:58:56;12.35;;;4.35;;
68225;SDS011;55045;49.410;11.030;2023-06-22T18:02:05;6.35;;;3.55;;
68225;SDS011;55045;49.410;11.030;2023-06-22T18:05:10;7.68;;;3.80;;
68225;SDS011;55045;49.410;11.030;2023-06-22T18:08:15;16.63;;;4.20;;
68225;SDS011;55045;49.410;11.030;2023-06-22T18:11:28;10.15;;;4.22;;
68225;SDS011;55045;49.410;11.030;2023-06-22T18:14:35;11.35;;;4.15;;
68225;SDS011;55045;49.410;11.030;2023-06-22T18:17:45;9.85;;;3.78;;
68225;SDS011;55045;49.410;11.030;2023-06-22T18:20:49;13.75;;;4.40;;
68225;SDS011;55045;49.410;11.030;2023-06-22T18:23:54;15.13;;;4.22;;
68225;SDS011;55045;49.410;11.030;2023-06-22T18:26:58;11.27;;;4.57;;
68225;SDS011;55045;49.410;11.030;2023-06-22T18:30:04;12.00;;;4.47;;
68225;SDS011;55045;49.410;11.030;2023-06-22T18:33:08;7.20;;;4.40;;
68225;SDS011;55045;49.410;11.030;2023-06-22T18:36:11;14.20;;;4.47;;